Time;durP1;ratioP1;P1;durP2;ratioP2;P2;SDS_P1;SDS_P2;PMS_P1;PMS_P2;Temp;Humidity;BMP_temperature;BMP_pressure;BME280_temperature;BME280_humidity;BME280_pressure;Samples;Min_cycle;Max_cycle;Signal;HPM_P1;HPM_P2
2020/12/25 09:09:48;;;;;;;22.00;9.87;;;;;;;4.02;76.65;98413.97;120213;1110;104354;-70
2020/12/25 09:12:14;;;;;;;24.50;9.97;;;;;;;4.02;76.81;98417.46;120088;1150;104459;-70
2020/12/25 09:14:41;;;;;;;21.73;10.63;;;;;;;4.06;77.01;98419.92;120049;1150;104483;-69
2020/12/25 09:17:08;;;;;;;20.77;9.47;;;;;;;4.08;76.79;98420.66;120053;1151;104394;-71
2020/12/25 09:19:35;;;;;;;20.73;9.73;;;;;;;4.10;77.04;98424.05;120068;1151;104947;-70
2020/12/25 09:22:02;;;;;;;17.60;8.20;;;;;;;4.09;76.51;98430.25;120127;1151;104905;-69
2020/12/25 09:24:29;;;;;;;18.80;8.40;;;;;;;4.07;76.74;98424.25;120057;1150;104490;-69
2020/12/25 09:26:56;;;;;;;19.42;9.20;;;;;;;4.07;76.73;98430.34;120179;1151;104420;-67
2020/12/25 09:29:23;;;;;;;20.67;9.50;;;;;;;4.13;77.12;98427.38;120119;1151;104353;-69
2020/12/25 09:31:50;;;;;;;21.70;9.43;;;;;;;4.20;77.39;98432.30;120048;1150;104474;-71
2020/12/25 09:34:17;;;;;;;19.77;8.93;;;;;;;4.23;76.55;98440.02;119779;1150;104453;-69
2020/12/25 09:36:44;;;;;;;20.37;9.07;;;;;;;4.24;76.80;98431.19;120090;1150;104813;-70
2020/12/25 09:39:11;;;;;;;20.63;8.00;;;;;;;4.31;76.85;98438.64;120004;1151;104457;-69
2020/12/25 09:41:37;;;;;;;20.30;8.15;;;;;;;4.36;76.78;98429.63;119955;1151;104454;-69
2020/12/25 09:44:05;;;;;;;20.90;9.10;;;;;;;4.43;76.88;98417.81;119993;1151;105005;-70
2020/12/25 09:46:32;;;;;;;19.70;7.97;;;;;;;4.44;76.85;98425.61;120098;1151;104461;-69
2020/12/25 09:48:59;;;;;;;21.13;9.37;;;;;;;4.51;76.90;98423.45;120106;1151;104373;-70
2020/12/25 09:51:26;;;;;;;23.87;9.63;;;;;;;4.56;76.79;98424.05;120060;1151;104521;-70
2020/12/25 09:53:53;;;;;;;20.10;9.10;;;;;;;4.64;76.80;98423.62;120155;1151;104377;-69
2020/12/25 09:56:20;;;;;;;23.60;8.65;;;;;;;4.70;76.72;98436.40;119961;1151;104537;-69
2020/12/25 09:58:47;;;;;;;17.23;7.87;;;;;;;4.65;76.51;98422.67;120048;1150;104371;-69
2020/12/25 10:01:14;;;;;;;18.27;7.83;;;;;;;4.59;76.63;98430.94;119976;1150;104506;-68
2020/12/25 10:03:41;;;;;;;17.67;8.10;;;;;;;4.54;76.51;98428.55;119967;1151;104400;-69
2020/12/25 10:06:08;;;;;;;18.30;8.23;;;;;;;4.53;75.80;98428.66;119968;1150;104423;-70
2020/12/25 10:08:35;;;;;;;18.57;7.70;;;;;;;4.50;76.67;98434.93;120024;1150;104353;-71
2020/12/25 10:11:02;;;;;;;17.87;8.75;;;;;;;4.49;76.67;98435.03;120161;1150;104343;-69
2020/12/25 10:13:29;;;;;;;17.13;7.37;;;;;;;4.54;76.39;98435.62;120012;1150;104348;-70
2020/12/25 10:15:56;;;;;;;16.37;7.55;;;;;;;4.62;76.91;98441.30;119996;1150;104462;-70
2020/12/25 10:18:23;;;;;;;17.30;7.07;;;;;;;4.72;76.69;98434.52;119989;1151;104467;-68
2020/12/25 10:20:50;;;;;;;16.23;7.07;;;;;;;4.82;76.55;98440.13;119997;1151;104423;-69
2020/12/25 10:23:17;;;;;;;18.17;7.77;;;;;;;4.87;76.64;98443.34;120015;1151;104438;-69
2020/12/25 10:25:45;;;;;;;18.80;7.17;;;;;;;4.95;76.72;98440.23;120169;1150;104442;-70
2020/12/25 10:28:11;;;;;;;17.17;6.83;;;;;;;4.98;76.44;98441.83;120054;1150;104441;-70
2020/12/25 10:30:38;;;;;;;17.23;7.63;;;;;;;5.01;76.43;98441.64;119936;1151;104500;-68
2020/12/25 10:33:06;;;;;;;17.23;7.47;;;;;;;5.06;76.47;98436.95;120040;1151;104478;-69
2020/12/25 10:35:33;;;;;;;15.45;6.05;;;;;;;5.08;76.48;98440.34;120022;1150;104564;-70
2020/12/25 10:38:01;;;;;;;14.47;5.90;;;;;;;5.08;76.82;98442.14;119935;1151;104533;-70
2020/12/25 10:40:30;;;;;;;14.90;6.27;;;;;;;5.04;76.47;98434.42;119944;1151;104445;-71
2020/12/25 10:42:57;;;;;;;13.45;5.90;;;;;;;5.03;76.43;98437.99;119976;1150;104358;-69
2020/12/25 10:45:24;;;;;;;13.87;6.17;;;;;;;4.99;76.20;98432.98;119961;1151;104397;-70
2020/12/25 10:47:50;;;;;;;18.07;7.03;;;;;;;4.95;76.22;98431.47;119957;1150;104455;-69
2020/12/25 10:50:17;;;;;;;17.40;7.13;;;;;;;4.96;76.35;98433.16;119902;1150;104468;-70
2020/12/25 10:52:44;;;;;;;17.55;6.60;;;;;;;4.97;76.45;98443.63;120076;1150;104494;-68
2020/12/25 10:55:13;;;;;;;15.60;5.93;;;;;;;4.99;76.19;98440.89;119937;1150;104821;-69
2020/12/25 10:57:41;;;;;;;16.40;6.10;;;;;;;4.98;76.31;98445.33;119988;1149;104375;-72
2020/12/25 11:00:08;;;;;;;17.30;7.20;;;;;;;5.03;76.41;98450.31;120000;1151;104387;-70
2020/12/25 11:02:35;;;;;;;15.10;6.50;;;;;;;5.08;76.09;98448.25;119955;1150;104385;-72
2020/12/25 11:05:04;;;;;;;16.60;6.93;;;;;;;5.03;76.20;98451.17;119916;1150;104351;-71
2020/12/25 11:07:31;;;;;;;18.23;7.47;;;;;;;5.02;76.28;98448.61;119928;1151;104493;-71
2020/12/25 11:09:58;;;;;;;19.40;7.60;;;;;;;5.05;76.01;98448.43;119764;1151;104633;-71
2020/12/25 11:12:25;;;;;;;18.50;7.45;;;;;;;5.04;76.17;98452.01;120041;1151;104351;-70
2020/12/25 11:14:52;;;;;;;19.37;7.83;;;;;;;4.98;76.11;98455.00;120035;1151;104369;-71
2020/12/25 11:17:19;;;;;;;18.10;7.73;;;;;;;4.97;76.04;98453.31;119859;1151;104351;-72
2020/12/25 11:19:46;;;;;;;14.03;6.20;;;;;;;4.96;75.97;98448.97;120240;1150;104592;-70
2020/12/25 11:22:14;;;;;;;18.98;7.78;;;;;;;4.95;76.04;98455.19;120051;1150;104393;-71
2020/12/25 11:24:44;;;;;;;14.60;6.70;;;;;;;4.91;76.12;98450.09;119939;1150;103318;-73
2020/12/25 11:27:11;;;;;;;13.67;5.43;;;;;;;4.89;75.98;98453.77;120057;1151;104468;-71
2020/12/25 11:29:38;;;;;;;18.87;7.23;;;;;;;4.87;75.94;98459.15;120013;1151;104512;-70
2020/12/25 11:32:07;;;;;;;13.87;6.30;;;;;;;4.89;75.94;98462.52;120040;1150;101987;-69
2020/12/25 11:34:34;;;;;;;19.23;7.63;;;;;;;4.86;75.92;98469.77;120096;1150;104876;-70
2020/12/25 11:37:01;;;;;;;18.20;7.23;;;;;;;4.83;76.08;98464.67;120038;1150;104952;-71
2020/12/25 11:39:29;;;;;;;17.87;7.43;;;;;;;4.80;76.20;98468.34;120133;1151;104371;-69
2020/12/25 11:41:57;;;;;;;14.90;6.43;;;;;;;4.80;75.80;98462.22;120028;1150;104453;-74
2020/12/25 11:44:24;;;;;;;16.40;6.80;;;;;;;4.79;76.02;98476.33;120109;1150;104346;-72
2020/12/25 11:46:51;;;;;;;18.57;7.70;;;;;;;4.77;75.77;98466.72;120123;1151;104388;-69
2020/12/25 11:49:18;;;;;;;18.27;6.90;;;;;;;4.78;75.94;98462.32;120081;1151;104461;-71
